sensor_id;sensor_type;location;lat;lon;timestamp;temperature;humidity
32394;DHT22;18853;45.426;9.206;2023-04-24T00:00:05;21.20;53.60
32394;DHT22;18853;45.426;9.206;2023-04-24T00:02:32;21.30;53.70
32394;DHT22;18853;45.426;9.206;2023-04-24T00:04:58;21.30;53.60
32394;DHT22;18853;45.426;9.206;2023-04-24T00:07:28;21.30;53.50
32394;DHT22;18853;45.426;9.206;2023-04-24T00:09:54;21.30;53.50
32394;DHT22;18853;45.426;9.206;2023-04-24T00:12:21;21.30;53.60
32394;DHT22;18853;45.426;9.206;2023-04-24T00:14:46;21.30;53.40
32394;DHT22;18853;45.426;9.206;2023-04-24T00:17:12;21.30;53.20
32394;DHT22;18853;45.426;9.206;2023-04-24T00:19:38;21.20;53.00
32394;DHT22;18853;45.426;9.206;2023-04-24T00:22:04;21.20;53.00
32394;DHT22;18853;45.426;9.206;2023-04-24T00:24:30;21.20;53.60
32394;DHT22;18853;45.426;9.206;2023-04-24T00:26:57;21.20;53.70
32394;DHT22;18853;45.426;9.206;2023-04-24T00:29:22;21.20;53.50
32394;DHT22;18853;45.426;9.206;2023-04-24T00:31:48;21.20;54.10
32394;DHT22;18853;45.426;9.206;2023-04-24T00:34:14;21.20;54.10
32394;DHT22;18853;45.426;9.206;2023-04-24T00:36:39;21.20;54.50
32394;DHT22;18853;45.426;9.206;2023-04-24T00:39:06;21.20;54.50
32394;DHT22;18853;45.426;9.206;2023-04-24T00:41:34;21.10;54.50
32394;DHT22;18853;45.426;9.206;2023-04-24T00:44:00;21.20;54.30
32394;DHT22;18853;45.426;9.206;2023-04-24T00:46:26;21.20;54.50
32394;DHT22;18853;45.426;9.206;2023-04-24T00:48:52;21.10;54.30
32394;DHT22;18853;45.426;9.206;2023-04-24T00:51:17;21.10;54.50
32394;DHT22;18853;45.426;9.206;2023-04-24T00:53:43;21.10;54.50
32394;DHT22;18853;45.426;9.206;2023-04-24T00:56:09;21.10;54.50
32394;DHT22;18853;45.426;9.206;2023-04-24T00:58:35;21.10;54.50
32394;DHT22;18853;45.426;9.206;2023-04-24T01:01:01;21.10;55.10
32394;DHT22;18853;45.426;9.206;2023-04-24T01:03:29;21.00;54.90
32394;DHT22;18853;45.426;9.206;2023-04-24T01:05:56;21.00;54.90
32394;DHT22;18853;45.426;9.206;2023-04-24T01:08:24;20.90;54.50
32394;DHT22;18853;45.426;9.206;2023-04-24T01:10:53;20.90;54.50
32394;DHT22;18853;45.426;9.206;2023-04-24T01:13:19;21.00;54.80
32394;DHT22;18853;45.426;9.206;2023-04-24T01:15:46;20.90;55.30
32394;DHT22;18853;45.426;9.206;2023-04-24T01:18:12;20.90;55.20
32394;DHT22;18853;45.426;9.206;2023-04-24T01:20:40;20.90;55.20
32394;DHT22;18853;45.426;9.206;2023-04-24T01:23:06;20.90;55.30
32394;DHT22;18853;45.426;9.206;2023-04-24T01:25:32;20.90;55.40
32394;DHT22;18853;45.426;9.206;2023-04-24T01:27:59;20.90;55.30
32394;DHT22;18853;45.426;9.206;2023-04-24T01:30:25;20.80;55.20
32394;DHT22;18853;45.426;9.206;2023-04-24T01:32:52;20.80;55.90
32394;DHT22;18853;45.426;9.206;2023-04-24T01:35:18;20.80;56.10
32394;DHT22;18853;45.426;9.206;2023-04-24T01:37:44;20.80;56.10
32394;DHT22;18853;45.426;9.206;2023-04-24T01:40:10;20.80;56.40
32394;DHT22;18853;45.426;9.206;2023-04-24T01:42:36;20.70;56.60
32394;DHT22;18853;45.426;9.206;2023-04-24T01:45:03;20.70;56.70
32394;DHT22;18853;45.426;9.206;2023-04-24T01:47:30;20.70;56.60
32394;DHT22;18853;45.426;9.206;2023-04-24T01:49:56;20.70;56.70
32394;DHT22;18853;45.426;9.206;2023-04-24T01:52:22;20.70;56.80
32394;DHT22;18853;45.426;9.206;2023-04-24T01:54:48;20.70;57.00
32394;DHT22;18853;45.426;9.206;2023-04-24T01:57:14;20.60;57.10
32394;DHT22;18853;45.426;9.206;2023-04-24T01:59:41;20.70;57.10
32394;DHT22;18853;45.426;9.206;2023-04-24T02:02:07;20.70;57.30
32394;DHT22;18853;45.426;9.206;2023-04-24T02:04:32;20.70;57.30
32394;DHT22;18853;45.426;9.206;2023-04-24T02:06:58;20.60;57.40
32394;DHT22;18853;45.426;9.206;2023-04-24T02:09:24;20.60;57.50
32394;DHT22;18853;45.426;9.206;2023-04-24T02:11:50;20.60;57.70
32394;DHT22;18853;45.426;9.206;2023-04-24T02:14:16;20.60;57.70
32394;DHT22;18853;45.426;9.206;2023-04-24T02:16:42;20.60;57.80
32394;DHT22;18853;45.426;9.206;2023-04-24T02:19:07;20.60;57.90
32394;DHT22;18853;45.426;9.206;2023-04-24T02:21:33;20.60;57.90
32394;DHT22;18853;45.426;9.206;2023-04-24T02:23:59;20.50;58.00
32394;DHT22;18853;45.426;9.206;2023-04-24T02:26:25;20.50;57.90
32394;DHT22;18853;45.426;9.206;2023-04-24T02:28:51;20.60;58.00
32394;DHT22;18853;45.426;9.206;2023-04-24T02:31:17;20.50;58.20
32394;DHT22;18853;45.426;9.206;2023-04-24T02:33:42;20.50;57.90
32394;DHT22;18853;45.426;9.206;2023-04-24T02:36:08;20.50;58.00
32394;DHT22;18853;45.426;9.206;2023-04-24T02:38:34;20.50;58.10
32394;DHT22;18853;45.426;9.206;2023-04-24T02:41:00;20.50;58.20
32394;DHT22;18853;45.426;9.206;2023-04-24T02:43:27;20.50;58.20
32394;DHT22;18853;45.426;9.206;2023-04-24T02:45:53;20.50;58.90
32394;DHT22;18853;45.426;9.206;2023-04-24T02:48:19;20.50;58.50
32394;DHT22;18853;45.426;9.206;2023-04-24T02:50:46;20.50;58.20
32394;DHT22;18853;45.426;9.206;2023-04-24T02:53:12;20.60;58.00
32394;DHT22;18853;45.426;9.206;2023-04-24T02:55:37;20.70;57.80
32394;DHT22;18853;45.426;9.206;2023-04-24T02:58:03;20.70;57.60
32394;DHT22;18853;45.426;9.206;2023-04-24T03:00:29;20.70;57.80
32394;DHT22;18853;45.426;9.206;2023-04-24T03:02:55;20.50;57.90
32394;DHT22;18853;45.426;9.206;2023-04-24T03:05:21;20.50;57.90
32394;DHT22;18853;45.426;9.206;2023-04-24T03:07:46;20.50;57.90
32394;DHT22;18853;45.426;9.206;2023-04-24T03:10:12;20.40;58.00
32394;DHT22;18853;45.426;9.206;2023-04-24T03:12:38;20.40;58.10
32394;DHT22;18853;45.426;9.206;2023-04-24T03:15:04;20.40;58.30
32394;DHT22;18853;45.426;9.206;2023-04-24T03:17:30;20.40;58.40
32394;DHT22;18853;45.426;9.206;2023-04-24T03:19:56;20.30;58.40
32394;DHT22;18853;45.426;9.206;2023-04-24T03:22:21;20.30;58.40
32394;DHT22;18853;45.426;9.206;2023-04-24T03:24:47;20.20;58.40
32394;DHT22;18853;45.426;9.206;2023-04-24T03:27:13;20.20;58.40
32394;DHT22;18853;45.426;9.206;2023-04-24T03:29:38;20.20;58.40
32394;DHT22;18853;45.426;9.206;2023-04-24T03:32:04;20.10;58.30
32394;DHT22;18853;45.426;9.206;2023-04-24T03:34:30;20.20;58.40
32394;DHT22;18853;45.426;9.206;2023-04-24T03:36:55;20.10;58.40
32394;DHT22;18853;45.426;9.206;2023-04-24T03:39:21;20.10;58.50
32394;DHT22;18853;45.426;9.206;2023-04-24T03:41:47;20.10;58.60
32394;DHT22;18853;45.426;9.206;2023-04-24T03:44:12;20.10;58.60
32394;DHT22;18853;45.426;9.206;2023-04-24T03:46:38;20.10;58.60
32394;DHT22;18853;45.426;9.206;2023-04-24T03:49:04;20.10;58.60
32394;DHT22;18853;45.426;9.206;2023-04-24T03:51:29;20.10;58.40
32394;DHT22;18853;45.426;9.206;2023-04-24T03:53:56;20.00;58.30
32394;DHT22;18853;45.426;9.206;2023-04-24T03:56:21;20.10;58.40
32394;DHT22;18853;45.426;9.206;2023-04-24T03:58:47;20.00;58.50
32394;DHT22;18853;45.426;9.206;2023-04-24T04:01:13;20.00;58.40
32394;DHT22;18853;45.426;9.206;2023-04-24T04:03:41;20.00;58.20
32394;DHT22;18853;45.426;9.206;2023-04-24T04:06:07;20.00;58.30
32394;DHT22;18853;45.426;9.206;2023-04-24T04:08:33;19.90;58.20
32394;DHT22;18853;45.426;9.206;2023-04-24T04:10:58;19.90;58.30
32394;DHT22;18853;45.426;9.206;2023-04-24T04:13:24;19.80;58.30
32394;DHT22;18853;45.426;9.206;2023-04-24T04:15:50;19.80;58.30
32394;DHT22;18853;45.426;9.206;2023-04-24T04:18:16;19.80;58.30
32394;DHT22;18853;45.426;9.206;2023-04-24T04:20:41;19.80;58.30
32394;DHT22;18853;45.426;9.206;2023-04-24T04:23:07;19.80;58.30
32394;DHT22;18853;45.426;9.206;2023-04-24T04:25:33;19.80;58.30
32394;DHT22;18853;45.426;9.206;2023-04-24T04:27:59;19.80;58.40
32394;DHT22;18853;45.426;9.206;2023-04-24T04:30:25;19.70;58.40
32394;DHT22;18853;45.426;9.206;2023-04-24T04:32:51;19.70;58.60
32394;DHT22;18853;45.426;9.206;2023-04-24T04:35:17;19.70;58.70
32394;DHT22;18853;45.426;9.206;2023-04-24T04:37:43;19.70;58.70
32394;DHT22;18853;45.426;9.206;2023-04-24T04:40:08;19.70;58.60
32394;DHT22;18853;45.426;9.206;2023-04-24T04:42:37;19.70;59.30
32394;DHT22;18853;45.426;9.206;2023-04-24T04:45:09;19.60;58.70
32394;DHT22;18853;45.426;9.206;2023-04-24T04:47:38;19.60;58.80
32394;DHT22;18853;45.426;9.206;2023-04-24T04:50:05;19.60;58.70
32394;DHT22;18853;45.426;9.206;2023-04-24T04:52:31;19.60;58.80
32394;DHT22;18853;45.426;9.206;2023-04-24T04:54:56;19.60;58.80
32394;DHT22;18853;45.426;9.206;2023-04-24T04:57:22;19.60;58.90
32394;DHT22;18853;45.426;9.206;2023-04-24T04:59:48;19.60;59.10
32394;DHT22;18853;45.426;9.206;2023-04-24T05:02:14;19.60;59.20
32394;DHT22;18853;45.426;9.206;2023-04-24T05:04:39;19.50;59.30
32394;DHT22;18853;45.426;9.206;2023-04-24T05:07:05;19.50;59.40
32394;DHT22;18853;45.426;9.206;2023-04-24T05:09:31;19.50;59.30
32394;DHT22;18853;45.426;9.206;2023-04-24T05:11:57;19.50;59.20
32394;DHT22;18853;45.426;9.206;2023-04-24T05:14:23;19.50;59.20
32394;DHT22;18853;45.426;9.206;2023-04-24T05:16:48;19.50;59.20
32394;DHT22;18853;45.426;9.206;2023-04-24T05:19:14;19.50;59.20
32394;DHT22;18853;45.426;9.206;2023-04-24T05:21:43;19.50;59.20
32394;DHT22;18853;45.426;9.206;2023-04-24T05:24:09;19.50;59.20
32394;DHT22;18853;45.426;9.206;2023-04-24T05:26:34;19.50;59.10
32394;DHT22;18853;45.426;9.206;2023-04-24T05:29:01;19.50;59.20
32394;DHT22;18853;45.426;9.206;2023-04-24T05:31:27;19.50;59.20
32394;DHT22;18853;45.426;9.206;2023-04-24T05:33:53;19.50;59.20
32394;DHT22;18853;45.426;9.206;2023-04-24T05:36:19;19.50;59.40
32394;DHT22;18853;45.426;9.206;2023-04-24T05:38:45;19.50;59.40
32394;DHT22;18853;45.426;9.206;2023-04-24T05:41:10;19.50;59.40
32394;DHT22;18853;45.426;9.206;2023-04-24T05:43:36;19.50;59.40
32394;DHT22;18853;45.426;9.206;2023-04-24T05:46:02;19.50;59.50
32394;DHT22;18853;45.426;9.206;2023-04-24T05:48:27;19.40;59.40
32394;DHT22;18853;45.426;9.206;2023-04-24T05:50:53;19.40;59.40
32394;DHT22;18853;45.426;9.206;2023-04-24T05:53:19;19.40;59.20
32394;DHT22;18853;45.426;9.206;2023-04-24T05:55:45;19.50;59.20
32394;DHT22;18853;45.426;9.206;2023-04-24T05:58:11;19.40;59.00
32394;DHT22;18853;45.426;9.206;2023-04-24T06:00:37;19.50;58.90
32394;DHT22;18853;45.426;9.206;2023-04-24T06:03:05;19.50;58.90
32394;DHT22;18853;45.426;9.206;2023-04-24T06:05:31;19.50;58.90
32394;DHT22;18853;45.426;9.206;2023-04-24T06:07:56;19.50;58.90
32394;DHT22;18853;45.426;9.206;2023-04-24T06:10:22;19.40;58.90
32394;DHT22;18853;45.426;9.206;2023-04-24T06:12:48;19.40;59.00
32394;DHT22;18853;45.426;9.206;2023-04-24T06:15:13;19.60;58.60
32394;DHT22;18853;45.426;9.206;2023-04-24T06:17:39;19.70;58.30
32394;DHT22;18853;45.426;9.206;2023-04-24T06:20:05;19.70;58.30
32394;DHT22;18853;45.426;9.206;2023-04-24T06:22:32;19.70;58.40
32394;DHT22;18853;45.426;9.206;2023-04-24T06:24:59;19.70;58.40
32394;DHT22;18853;45.426;9.206;2023-04-24T06:27:24;19.70;58.20
32394;DHT22;18853;45.426;9.206;2023-04-24T06:29:50;19.60;58.30
32394;DHT22;18853;45.426;9.206;2023-04-24T06:32:23;19.60;58.40
32394;DHT22;18853;45.426;9.206;2023-04-24T06:34:53;19.60;58.30
32394;DHT22;18853;45.426;9.206;2023-04-24T06:37:20;19.60;58.40
32394;DHT22;18853;45.426;9.206;2023-04-24T06:39:46;19.60;58.50
32394;DHT22;18853;45.426;9.206;2023-04-24T06:42:12;19.70;58.80
32394;DHT22;18853;45.426;9.206;2023-04-24T06:44:37;19.80;58.80
32394;DHT22;18853;45.426;9.206;2023-04-24T06:47:12;19.90;58.50
32394;DHT22;18853;45.426;9.206;2023-04-24T06:49:41;20.10;57.90
32394;DHT22;18853;45.426;9.206;2023-04-24T06:52:07;20.10;57.10
32394;DHT22;18853;45.426;9.206;2023-04-24T06:54:32;20.10;57.00
32394;DHT22;18853;45.426;9.206;2023-04-24T06:57:00;20.00;56.60
32394;DHT22;18853;45.426;9.206;2023-04-24T06:59:26;20.00;56.70
32394;DHT22;18853;45.426;9.206;2023-04-24T07:01:53;20.00;56.40
32394;DHT22;18853;45.426;9.206;2023-04-24T07:04:18;20.00;56.10
32394;DHT22;18853;45.426;9.206;2023-04-24T07:06:48;20.00;56.10
32394;DHT22;18853;45.426;9.206;2023-04-24T07:09:14;20.00;56.10
32394;DHT22;18853;45.426;9.206;2023-04-24T07:11:41;19.90;55.50
32394;DHT22;18853;45.426;9.206;2023-04-24T07:14:07;19.90;55.70
32394;DHT22;18853;45.426;9.206;2023-04-24T07:16:33;20.00;55.70
32394;DHT22;18853;45.426;9.206;2023-04-24T07:18:59;20.10;55.40
32394;DHT22;18853;45.426;9.206;2023-04-24T07:21:25;20.20;54.90
32394;DHT22;18853;45.426;9.206;2023-04-24T07:23:51;20.30;55.00
32394;DHT22;18853;45.426;9.206;2023-04-24T07:26:17;20.40;54.80
32394;DHT22;18853;45.426;9.206;2023-04-24T07:28:43;20.40;54.40
32394;DHT22;18853;45.426;9.206;2023-04-24T07:31:09;20.50;54.50
32394;DHT22;18853;45.426;9.206;2023-04-24T07:33:35;20.60;54.20
32394;DHT22;18853;45.426;9.206;2023-04-24T07:36:01;20.60;53.90
32394;DHT22;18853;45.426;9.206;2023-04-24T07:38:29;20.60;53.70
32394;DHT22;18853;45.426;9.206;2023-04-24T07:40:55;20.70;53.10
32394;DHT22;18853;45.426;9.206;2023-04-24T07:43:21;20.70;52.40
32394;DHT22;18853;45.426;9.206;2023-04-24T07:45:47;20.60;52.50
32394;DHT22;18853;45.426;9.206;2023-04-24T07:48:13;20.50;53.30
32394;DHT22;18853;45.426;9.206;2023-04-24T07:50:42;20.40;52.80
32394;DHT22;18853;45.426;9.206;2023-04-24T07:53:07;20.40;52.90
32394;DHT22;18853;45.426;9.206;2023-04-24T07:55:33;20.50;52.70
32394;DHT22;18853;45.426;9.206;2023-04-24T07:57:59;20.60;52.70
32394;DHT22;18853;45.426;9.206;2023-04-24T08:00:25;20.60;52.80
32394;DHT22;18853;45.426;9.206;2023-04-24T08:02:50;20.60;53.00
32394;DHT22;18853;45.426;9.206;2023-04-24T08:05:16;20.50;53.10
32394;DHT22;18853;45.426;9.206;2023-04-24T08:07:42;20.40;53.30
32394;DHT22;18853;45.426;9.206;2023-04-24T08:10:10;20.50;53.40
32394;DHT22;18853;45.426;9.206;2023-04-24T08:12:37;20.50;53.60
32394;DHT22;18853;45.426;9.206;2023-04-24T08:15:04;20.70;53.40
32394;DHT22;18853;45.426;9.206;2023-04-24T08:17:30;20.70;53.20
32394;DHT22;18853;45.426;9.206;2023-04-24T08:19:56;20.70;53.20
32394;DHT22;18853;45.426;9.206;2023-04-24T08:22:27;20.80;53.00
32394;DHT22;18853;45.426;9.206;2023-04-24T08:24:53;20.90;52.80
32394;DHT22;18853;45.426;9.206;2023-04-24T08:27:19;20.90;52.60
32394;DHT22;18853;45.426;9.206;2023-04-24T08:29:45;20.90;53.00
32394;DHT22;18853;45.426;9.206;2023-04-24T08:32:11;20.80;52.40
32394;DHT22;18853;45.426;9.206;2023-04-24T08:34:36;20.90;52.50
32394;DHT22;18853;45.426;9.206;2023-04-24T08:37:02;20.90;53.00
32394;DHT22;18853;45.426;9.206;2023-04-24T08:39:28;20.90;52.30
32394;DHT22;18853;45.426;9.206;2023-04-24T08:41:55;20.80;52.20
32394;DHT22;18853;45.426;9.206;2023-04-24T08:44:21;20.80;52.30
32394;DHT22;18853;45.426;9.206;2023-04-24T08:46:50;20.70;52.60
32394;DHT22;18853;45.426;9.206;2023-04-24T08:49:17;20.80;52.40
32394;DHT22;18853;45.426;9.206;2023-04-24T08:51:44;20.80;52.00
32394;DHT22;18853;45.426;9.206;2023-04-24T08:54:12;20.80;51.70
32394;DHT22;18853;45.426;9.206;2023-04-24T08:56:38;20.80;51.40
32394;DHT22;18853;45.426;9.206;2023-04-24T08:59:06;20.90;50.90
32394;DHT22;18853;45.426;9.206;2023-04-24T09:01:32;20.80;50.50
32394;DHT22;18853;45.426;9.206;2023-04-24T09:04:04;20.80;50.40
32394;DHT22;18853;45.426;9.206;2023-04-24T09:06:31;20.90;50.30
32394;DHT22;18853;45.426;9.206;2023-04-24T09:09:02;21.00;50.00
32394;DHT22;18853;45.426;9.206;2023-04-24T09:11:30;21.00;49.80
32394;DHT22;18853;45.426;9.206;2023-04-24T09:13:56;21.10;49.60
32394;DHT22;18853;45.426;9.206;2023-04-24T09:16:25;21.10;49.90
32394;DHT22;18853;45.426;9.206;2023-04-24T09:18:52;21.20;49.70
32394;DHT22;18853;45.426;9.206;2023-04-24T09:21:20;21.20;49.90
32394;DHT22;18853;45.426;9.206;2023-04-24T09:23:46;21.30;50.00
32394;DHT22;18853;45.426;9.206;2023-04-24T09:26:12;21.40;50.00
32394;DHT22;18853;45.426;9.206;2023-04-24T09:28:40;21.50;49.40
32394;DHT22;18853;45.426;9.206;2023-04-24T09:31:14;21.50;49.40
32394;DHT22;18853;45.426;9.206;2023-04-24T09:33:57;21.40;49.00
32394;DHT22;18853;45.426;9.206;2023-04-24T09:36:39;21.50;48.90
32394;DHT22;18853;45.426;9.206;2023-04-24T09:39:07;21.50;49.10
32394;DHT22;18853;45.426;9.206;2023-04-24T09:41:33;21.50;49.10
32394;DHT22;18853;45.426;9.206;2023-04-24T09:44:18;21.50;49.00
32394;DHT22;18853;45.426;9.206;2023-04-24T09:46:50;21.50;48.80
32394;DHT22;18853;45.426;9.206;2023-04-24T09:49:21;21.40;49.00
32394;DHT22;18853;45.426;9.206;2023-04-24T09:51:47;21.40;49.20
32394;DHT22;18853;45.426;9.206;2023-04-24T09:54:15;21.30;49.20
32394;DHT22;18853;45.426;9.206;2023-04-24T09:56:45;21.30;49.10
32394;DHT22;18853;45.426;9.206;2023-04-24T09:59:13;21.20;49.00
32394;DHT22;18853;45.426;9.206;2023-04-24T10:01:39;21.20;49.20
32394;DHT22;18853;45.426;9.206;2023-04-24T10:04:19;21.20;48.60
32394;DHT22;18853;45.426;9.206;2023-04-24T10:06:46;21.30;48.30
32394;DHT22;18853;45.426;9.206;2023-04-24T10:09:13;21.20;48.50
32394;DHT22;18853;45.426;9.206;2023-04-24T10:11:48;21.20;47.80
32394;DHT22;18853;45.426;9.206;2023-04-24T10:14:20;21.20;47.30
32394;DHT22;18853;45.426;9.206;2023-04-24T10:16:46;21.20;47.80
32394;DHT22;18853;45.426;9.206;2023-04-24T10:19:13;21.30;48.30
32394;DHT22;18853;45.426;9.206;2023-04-24T10:21:41;21.40;48.50
32394;DHT22;18853;45.426;9.206;2023-04-24T10:24:12;21.40;48.30
32394;DHT22;18853;45.426;9.206;2023-04-24T10:26:38;21.50;48.00
32394;DHT22;18853;45.426;9.206;2023-04-24T10:29:05;21.40;48.00
32394;DHT22;18853;45.426;9.206;2023-04-24T10:31:36;21.50;48.10
32394;DHT22;18853;45.426;9.206;2023-04-24T10:34:04;21.50;48.10
32394;DHT22;18853;45.426;9.206;2023-04-24T10:36:31;21.50;47.70
32394;DHT22;18853;45.426;9.206;2023-04-24T10:39:00;21.50;46.50
32394;DHT22;18853;45.426;9.206;2023-04-24T10:41:26;21.50;45.60
32394;DHT22;18853;45.426;9.206;2023-04-24T10:46:32;21.60;45.20
32394;DHT22;18853;45.426;9.206;2023-04-24T10:48:57;21.60;45.60
32394;DHT22;18853;45.426;9.206;2023-04-24T10:51:24;21.60;46.00
32394;DHT22;18853;45.426;9.206;2023-04-24T10:53:51;21.60;46.60
32394;DHT22;18853;45.426;9.206;2023-04-24T10:56:17;21.70;46.60
32394;DHT22;18853;45.426;9.206;2023-04-24T10:58:50;21.70;47.10
32394;DHT22;18853;45.426;9.206;2023-04-24T11:01:31;21.70;46.90
32394;DHT22;18853;45.426;9.206;2023-04-24T11:04:01;21.80;47.00
32394;DHT22;18853;45.426;9.206;2023-04-24T11:06:35;21.70;46.60
32394;DHT22;18853;45.426;9.206;2023-04-24T11:09:09;21.80;46.50
32394;DHT22;18853;45.426;9.206;2023-04-24T11:11:38;21.90;46.50
32394;DHT22;18853;45.426;9.206;2023-04-24T11:14:10;21.90;46.80
32394;DHT22;18853;45.426;9.206;2023-04-24T11:16:42;21.90;46.80
32394;DHT22;18853;45.426;9.206;2023-04-24T11:19:22;21.90;46.60
32394;DHT22;18853;45.426;9.206;2023-04-24T11:32:19;22.10;45.50
32394;DHT22;18853;45.426;9.206;2023-04-24T11:34:50;22.10;45.80
32394;DHT22;18853;45.426;9.206;2023-04-24T11:37:16;22.20;45.80
32394;DHT22;18853;45.426;9.206;2023-04-24T11:39:42;22.30;45.30
32394;DHT22;18853;45.426;9.206;2023-04-24T11:42:09;22.40;45.40
32394;DHT22;18853;45.426;9.206;2023-04-24T11:44:35;22.40;44.90
32394;DHT22;18853;45.426;9.206;2023-04-24T11:47:05;22.50;44.80
32394;DHT22;18853;45.426;9.206;2023-04-24T11:49:32;22.60;44.80
32394;DHT22;18853;45.426;9.206;2023-04-24T11:51:59;22.70;44.60
32394;DHT22;18853;45.426;9.206;2023-04-24T11:54:26;22.80;44.70
32394;DHT22;18853;45.426;9.206;2023-04-24T11:56:52;22.90;44.50
32394;DHT22;18853;45.426;9.206;2023-04-24T11:59:17;23.00;43.70
32394;DHT22;18853;45.426;9.206;2023-04-24T12:01:46;23.00;43.50
32394;DHT22;18853;45.426;9.206;2023-04-24T12:04:13;23.10;42.30
32394;DHT22;18853;45.426;9.206;2023-04-24T12:06:39;23.10;42.20
32394;DHT22;18853;45.426;9.206;2023-04-24T12:09:05;23.20;42.00
32394;DHT22;18853;45.426;9.206;2023-04-24T12:11:31;23.20;42.20
32394;DHT22;18853;45.426;9.206;2023-04-24T12:13:57;23.30;42.00
32394;DHT22;18853;45.426;9.206;2023-04-24T12:16:26;23.40;41.70
32394;DHT22;18853;45.426;9.206;2023-04-24T12:18:52;23.50;41.30
32394;DHT22;18853;45.426;9.206;2023-04-24T12:21:24;23.50;41.00
32394;DHT22;18853;45.426;9.206;2023-04-24T12:23:54;23.60;40.70
32394;DHT22;18853;45.426;9.206;2023-04-24T12:26:20;23.70;40.50
32394;DHT22;18853;45.426;9.206;2023-04-24T12:28:49;23.80;40.80
32394;DHT22;18853;45.426;9.206;2023-04-24T12:31:15;23.90;40.80
32394;DHT22;18853;45.426;9.206;2023-04-24T12:33:42;23.90;39.30
32394;DHT22;18853;45.426;9.206;2023-04-24T12:36:11;24.00;39.10
32394;DHT22;18853;45.426;9.206;2023-04-24T12:38:43;24.10;37.80
32394;DHT22;18853;45.426;9.206;2023-04-24T12:41:13;24.20;37.70
32394;DHT22;18853;45.426;9.206;2023-04-24T12:43:51;24.20;38.40
32394;DHT22;18853;45.426;9.206;2023-04-24T12:46:17;24.30;38.10
32394;DHT22;18853;45.426;9.206;2023-04-24T12:48:42;24.30;37.60
32394;DHT22;18853;45.426;9.206;2023-04-24T12:51:08;24.40;37.10
32394;DHT22;18853;45.426;9.206;2023-04-24T12:53:34;24.50;37.00
32394;DHT22;18853;45.426;9.206;2023-04-24T12:55:59;24.60;36.40
32394;DHT22;18853;45.426;9.206;2023-04-24T12:58:25;24.70;35.70
32394;DHT22;18853;45.426;9.206;2023-04-24T13:00:51;24.70;35.00
32394;DHT22;18853;45.426;9.206;2023-04-24T13:03:18;24.80;35.20
32394;DHT22;18853;45.426;9.206;2023-04-24T13:05:44;24.90;34.60
32394;DHT22;18853;45.426;9.206;2023-04-24T13:08:09;24.90;33.60
32394;DHT22;18853;45.426;9.206;2023-04-24T13:10:35;25.00;31.50
32394;DHT22;18853;45.426;9.206;2023-04-24T13:13:01;25.10;29.90
32394;DHT22;18853;45.426;9.206;2023-04-24T13:15:28;25.20;29.60
32394;DHT22;18853;45.426;9.206;2023-04-24T13:17:54;25.30;28.20
32394;DHT22;18853;45.426;9.206;2023-04-24T13:20:20;25.30;28.30
32394;DHT22;18853;45.426;9.206;2023-04-24T13:22:46;25.40;27.80
32394;DHT22;18853;45.426;9.206;2023-04-24T13:25:11;25.40;27.70
32394;DHT22;18853;45.426;9.206;2023-04-24T13:27:40;25.50;29.10
32394;DHT22;18853;45.426;9.206;2023-04-24T13:30:07;25.60;29.30
32394;DHT22;18853;45.426;9.206;2023-04-24T13:32:32;25.60;29.80
32394;DHT22;18853;45.426;9.206;2023-04-24T13:34:59;25.70;29.70
32394;DHT22;18853;45.426;9.206;2023-04-24T13:37:24;25.80;30.50
32394;DHT22;18853;45.426;9.206;2023-04-24T13:39:50;25.80;30.30
32394;DHT22;18853;45.426;9.206;2023-04-24T13:42:16;25.90;30.20
32394;DHT22;18853;45.426;9.206;2023-04-24T13:44:42;26.00;30.00
32394;DHT22;18853;45.426;9.206;2023-04-24T13:47:07;26.10;30.50
32394;DHT22;18853;45.426;9.206;2023-04-24T13:49:33;26.20;29.90
32394;DHT22;18853;45.426;9.206;2023-04-24T13:51:59;26.20;29.00
32394;DHT22;18853;45.426;9.206;2023-04-24T13:54:24;26.20;28.90
32394;DHT22;18853;45.426;9.206;2023-04-24T13:56:51;26.30;28.90
32394;DHT22;18853;45.426;9.206;2023-04-24T13:59:21;26.40;28.70
32394;DHT22;18853;45.426;9.206;2023-04-24T14:01:47;26.50;26.10
32394;DHT22;18853;45.426;9.206;2023-04-24T14:04:13;26.60;25.40
32394;DHT22;18853;45.426;9.206;2023-04-24T14:06:38;26.70;25.30
32394;DHT22;18853;45.426;9.206;2023-04-24T14:09:04;26.80;25.90
32394;DHT22;18853;45.426;9.206;2023-04-24T14:11:30;26.80;24.20
32394;DHT22;18853;45.426;9.206;2023-04-24T14:13:55;26.90;24.00
32394;DHT22;18853;45.426;9.206;2023-04-24T14:16:24;27.00;23.50
32394;DHT22;18853;45.426;9.206;2023-04-24T14:18:50;27.10;23.40
32394;DHT22;18853;45.426;9.206;2023-04-24T14:21:16;27.20;22.70
32394;DHT22;18853;45.426;9.206;2023-04-24T14:23:41;27.30;22.50
32394;DHT22;18853;45.426;9.206;2023-04-24T14:26:07;27.30;23.40
32394;DHT22;18853;45.426;9.206;2023-04-24T14:28:33;27.30;23.90
32394;DHT22;18853;45.426;9.206;2023-04-24T14:30:59;27.30;24.10
32394;DHT22;18853;45.426;9.206;2023-04-24T14:33:25;27.40;24.50
32394;DHT22;18853;45.426;9.206;2023-04-24T14:35:50;27.50;24.90
32394;DHT22;18853;45.426;9.206;2023-04-24T14:38:16;27.50;24.60
32394;DHT22;18853;45.426;9.206;2023-04-24T14:40:42;27.60;24.50
32394;DHT22;18853;45.426;9.206;2023-04-24T14:43:07;27.70;24.80
32394;DHT22;18853;45.426;9.206;2023-04-24T14:45:33;27.80;24.60
32394;DHT22;18853;45.426;9.206;2023-04-24T14:47:59;27.90;25.00
32394;DHT22;18853;45.426;9.206;2023-04-24T14:50:24;27.90;24.50
32394;DHT22;18853;45.426;9.206;2023-04-24T14:52:54;27.90;24.60
32394;DHT22;18853;45.426;9.206;2023-04-24T14:55:23;27.90;24.50
32394;DHT22;18853;45.426;9.206;2023-04-24T14:57:48;28.00;24.50
32394;DHT22;18853;45.426;9.206;2023-04-24T15:00:14;28.00;24.00
32394;DHT22;18853;45.426;9.206;2023-04-24T15:02:42;28.00;23.20
32394;DHT22;18853;45.426;9.206;2023-04-24T15:05:10;28.00;23.00
32394;DHT22;18853;45.426;9.206;2023-04-24T15:07:36;28.10;23.40
32394;DHT22;18853;45.426;9.206;2023-04-24T15:10:03;28.20;24.00
32394;DHT22;18853;45.426;9.206;2023-04-24T15:12:29;28.20;23.90
32394;DHT22;18853;45.426;9.206;2023-04-24T15:14:55;28.20;23.60
32394;DHT22;18853;45.426;9.206;2023-04-24T15:17:20;28.20;24.40
32394;DHT22;18853;45.426;9.206;2023-04-24T15:19:46;28.30;25.00
32394;DHT22;18853;45.426;9.206;2023-04-24T15:22:16;28.40;25.10
32394;DHT22;18853;45.426;9.206;2023-04-24T15:24:44;28.50;24.60
32394;DHT22;18853;45.426;9.206;2023-04-24T15:27:10;28.70;25.10
32394;DHT22;18853;45.426;9.206;2023-04-24T15:29:37;28.70;25.00
32394;DHT22;18853;45.426;9.206;2023-04-24T15:32:02;28.70;24.80
32394;DHT22;18853;45.426;9.206;2023-04-24T15:34:28;28.60;23.90
32394;DHT22;18853;45.426;9.206;2023-04-24T15:36:54;28.70;23.80
32394;DHT22;18853;45.426;9.206;2023-04-24T15:39:23;28.70;22.80